createdAt,value
2023-01-30T00:01:22.885Z,5.20
2023-01-30T00:03:49.822Z,5.20
2023-01-30T00:06:16.712Z,5.20
2023-01-30T00:08:43.576Z,5.20
2023-01-30T00:11:12.696Z,5.20
2023-01-30T00:13:41.124Z,5.20
2023-01-30T00:16:12.128Z,5.30
2023-01-30T00:18:40.667Z,5.30
2023-01-30T00:21:09.617Z,5.40
2023-01-30T00:23:37.423Z,5.40
2023-01-30T00:26:06.409Z,5.40
2023-01-30T00:28:33.976Z,5.40
2023-01-30T00:31:00.942Z,5.40
2023-01-30T00:33:28.584Z,5.40
2023-01-30T00:35:57.024Z,5.40
2023-01-30T00:38:24.975Z,5.40
2023-01-30T00:40:52.058Z,5.40
2023-01-30T00:43:38.956Z,5.40
2023-01-30T00:46:48.708Z,5.50
2023-01-30T00:49:15.731Z,5.50
2023-01-30T00:51:42.783Z,5.60
2023-01-30T00:54:09.920Z,5.70
2023-01-30T00:56:36.690Z,5.70
2023-01-30T00:59:03.571Z,5.70
2023-01-30T01:01:30.489Z,5.70
2023-01-30T01:03:57.270Z,5.80
2023-01-30T01:06:24.248Z,5.70
2023-01-30T01:08:51.036Z,5.70
2023-01-30T01:11:24.961Z,5.80
2023-01-30T01:13:56.984Z,5.80
2023-01-30T01:16:25.340Z,5.70
2023-01-30T01:18:52.817Z,5.80
2023-01-30T01:21:20.748Z,5.90
2023-01-30T01:23:52.656Z,5.90
2023-01-30T01:26:20.629Z,5.80
2023-01-30T01:28:47.551Z,6.00
2023-01-30T01:31:17.832Z,5.90
2023-01-30T01:33:44.942Z,5.90
2023-01-30T01:36:13.606Z,5.90
2023-01-30T01:38:46.898Z,5.90
2023-01-30T01:41:16.514Z,6.20
2023-01-30T01:44:09.782Z,5.90
2023-01-30T01:46:57.149Z,5.90
2023-01-30T01:49:31.546Z,5.90
2023-01-30T01:52:13.234Z,5.90
2023-01-30T01:54:50.860Z,5.90
2023-01-30T01:57:24.197Z,6.00
2023-01-30T01:59:56.755Z,6.00
2023-01-30T02:02:23.967Z,6.00
2023-01-30T02:05:04.565Z,6.00
2023-01-30T02:07:53.322Z,6.00
2023-01-30T02:10:27.842Z,6.20
2023-01-30T02:12:55.434Z,6.10
2023-01-30T02:15:22.579Z,6.10
2023-01-30T02:17:49.572Z,6.20
2023-01-30T02:21:05.497Z,6.10
2023-01-30T02:23:59.329Z,6.10
2023-01-30T02:26:29.221Z,6.00
2023-01-30T02:29:28.957Z,6.10
2023-01-30T02:32:02.350Z,6.10
2023-01-30T02:34:45.126Z,6.30
2023-01-30T02:37:24.854Z,6.30
2023-01-30T02:40:18.191Z,6.30
2023-01-30T02:42:53.154Z,6.20
2023-01-30T02:45:49.354Z,6.20
2023-01-30T02:48:27.238Z,6.30
2023-01-30T02:51:00.578Z,6.30
2023-01-30T02:53:32.862Z,6.30
2023-01-30T02:56:00.714Z,6.30
2023-01-30T02:58:33.315Z,6.30
2023-01-30T03:01:37.943Z,6.30
2023-01-30T03:04:32.035Z,6.30
2023-01-30T03:07:21.461Z,6.30
2023-01-30T03:10:15.498Z,6.30
2023-01-30T03:12:54.949Z,6.30
2023-01-30T03:15:24.763Z,6.40
2023-01-30T03:17:52.008Z,6.40
2023-01-30T03:20:20.610Z,6.40
2023-01-30T03:22:48.193Z,6.40
2023-01-30T03:25:20.871Z,6.40
2023-01-30T03:27:50.428Z,6.40
2023-01-30T03:30:17.907Z,6.40
2023-01-30T03:32:44.743Z,6.40
2023-01-30T03:35:11.649Z,6.40
2023-01-30T03:37:38.902Z,6.40
2023-01-30T03:40:06.464Z,6.50
2023-01-30T03:42:33.315Z,6.50
2023-01-30T03:45:00.169Z,6.50
2023-01-30T03:47:27.227Z,6.50
2023-01-30T03:49:54.281Z,6.40
2023-01-30T03:52:21.316Z,6.40
2023-01-30T03:54:48.136Z,6.40
2023-01-30T03:57:14.951Z,6.50
2023-01-30T03:59:41.761Z,6.60
2023-01-30T04:02:08.748Z,6.40
2023-01-30T04:04:36.022Z,6.40
2023-01-30T04:07:02.958Z,6.40
2023-01-30T04:09:29.748Z,6.50
2023-01-30T04:11:56.527Z,6.50
2023-01-30T04:14:23.332Z,6.40
2023-01-30T04:16:50.204Z,6.40
2023-01-30T04:19:17.098Z,6.40
2023-01-30T04:21:44.082Z,6.40
2023-01-30T04:24:11.016Z,6.50
2023-01-30T04:26:37.805Z,6.30
2023-01-30T04:29:04.761Z,6.40
2023-01-30T04:31:31.646Z,6.40
2023-01-30T04:33:58.623Z,6.40
2023-01-30T04:36:25.629Z,6.40
2023-01-30T04:38:53.420Z,6.40
2023-01-30T04:41:20.328Z,6.40
2023-01-30T04:43:47.286Z,6.40
2023-01-30T04:46:14.268Z,6.40
2023-01-30T04:48:41.191Z,6.50
2023-01-30T04:51:08.200Z,6.40
2023-01-30T04:53:35.027Z,6.50
2023-01-30T04:56:01.899Z,6.40
2023-01-30T04:58:28.767Z,6.30
2023-01-30T05:00:55.759Z,6.30
2023-01-30T05:03:22.606Z,6.20
2023-01-30T05:05:49.676Z,6.10
2023-01-30T05:08:16.557Z,6.00
2023-01-30T05:10:43.440Z,6.20
2023-01-30T05:13:10.348Z,6.10
2023-01-30T05:15:38.959Z,6.10
2023-01-30T05:18:05.781Z,6.00
2023-01-30T05:20:32.611Z,6.20
2023-01-30T05:22:59.384Z,6.10
2023-01-30T05:25:26.203Z,6.10
2023-01-30T05:27:53.207Z,6.00
2023-01-30T05:30:20.197Z,6.10
2023-01-30T05:32:47.339Z,6.00
2023-01-30T05:35:14.184Z,5.90
2023-01-30T05:37:41.020Z,6.00
2023-01-30T05:40:08.940Z,5.90
2023-01-30T05:42:35.788Z,5.90
2023-01-30T05:45:02.731Z,5.90
2023-01-30T05:47:29.496Z,5.80
2023-01-30T05:49:56.819Z,5.90
2023-01-30T05:52:23.646Z,5.90
2023-01-30T05:54:50.569Z,5.90
2023-01-30T05:57:17.498Z,5.90
2023-01-30T05:59:44.393Z,6.00
2023-01-30T06:02:12.102Z,5.80
2023-01-30T06:04:38.994Z,5.80
2023-01-30T06:07:05.794Z,5.80
2023-01-30T06:09:32.615Z,5.70
2023-01-30T06:11:59.553Z,5.70
2023-01-30T06:14:26.420Z,5.60
2023-01-30T06:16:53.394Z,5.70
2023-01-30T06:19:20.276Z,5.70
2023-01-30T06:21:47.105Z,5.60
2023-01-30T06:24:14.060Z,5.50
2023-01-30T06:26:41.039Z,5.50
2023-01-30T06:29:07.859Z,5.50
2023-01-30T06:31:34.709Z,5.40
2023-01-30T06:34:01.624Z,5.40
2023-01-30T06:36:28.574Z,5.40
2023-01-30T06:38:55.579Z,5.60
2023-01-30T06:41:22.399Z,5.30
2023-01-30T06:43:49.331Z,5.30
2023-01-30T06:46:16.163Z,5.30
2023-01-30T06:48:43.030Z,5.40
2023-01-30T06:51:09.905Z,5.40
2023-01-30T06:53:37.322Z,5.40
2023-01-30T06:56:04.529Z,5.40
2023-01-30T06:58:31.378Z,5.40
2023-01-30T07:00:58.280Z,5.40
2023-01-30T07:03:25.275Z,5.50
2023-01-30T07:05:52.295Z,5.60
2023-01-30T07:08:19.158Z,5.50
2023-01-30T07:10:46.201Z,5.50
2023-01-30T07:13:13.635Z,5.50
2023-01-30T07:15:40.574Z,5.50
2023-01-30T07:18:07.597Z,5.50
2023-01-30T07:20:34.810Z,5.50
2023-01-30T07:23:01.878Z,5.60
2023-01-30T07:25:29.725Z,5.50
2023-01-30T07:27:59.323Z,5.70
2023-01-30T07:30:27.749Z,5.50
2023-01-30T07:32:57.861Z,5.50
2023-01-30T07:35:27.299Z,5.60
2023-01-30T07:37:54.310Z,5.60
2023-01-30T07:40:21.732Z,5.60
2023-01-30T07:42:59.795Z,5.60
2023-01-30T07:45:31.306Z,5.80
2023-01-30T07:47:58.183Z,5.60
2023-01-30T07:50:25.038Z,5.70
2023-01-30T07:52:53.044Z,5.60
2023-01-30T07:55:20.163Z,5.60
2023-01-30T07:57:47.443Z,5.60
2023-01-30T08:00:14.987Z,5.60
2023-01-30T08:02:42.002Z,5.60
2023-01-30T08:05:09.223Z,5.70
2023-01-30T08:07:36.096Z,5.70
2023-01-30T08:10:02.984Z,5.80
2023-01-30T08:12:29.897Z,5.70
2023-01-30T08:14:56.774Z,5.80
2023-01-30T08:17:23.639Z,5.80
2023-01-30T08:19:50.516Z,5.80
2023-01-30T08:22:17.731Z,5.80
2023-01-30T08:24:44.624Z,5.80
2023-01-30T08:27:11.514Z,5.90
2023-01-30T08:29:38.362Z,5.90
2023-01-30T08:32:05.441Z,5.80
2023-01-30T08:34:32.448Z,5.90
2023-01-30T08:36:59.342Z,5.90
2023-01-30T08:39:26.196Z,5.90
2023-01-30T08:41:55.986Z,5.90
2023-01-30T08:44:22.987Z,5.90
2023-01-30T08:46:49.767Z,5.90
2023-01-30T08:49:16.714Z,6.00
2023-01-30T08:51:43.581Z,6.10
2023-01-30T08:54:10.441Z,6.00
2023-01-30T08:56:37.551Z,6.00
2023-01-30T08:59:04.361Z,6.10
2023-01-30T09:01:31.278Z,6.10
2023-01-30T09:03:58.310Z,6.10
2023-01-30T09:06:26.344Z,6.10
2023-01-30T09:08:53.254Z,6.20
2023-01-30T09:11:20.280Z,6.10
2023-01-30T09:13:48.891Z,6.20
2023-01-30T09:16:17.031Z,6.10
2023-01-30T09:18:44.956Z,6.10
2023-01-30T09:21:13.274Z,6.20
2023-01-30T09:23:40.446Z,6.30
2023-01-30T09:26:07.436Z,6.20
2023-01-30T09:28:34.600Z,6.20
2023-01-30T09:31:02.481Z,6.30
2023-01-30T09:33:29.539Z,6.30
2023-01-30T09:35:57.021Z,6.30
2023-01-30T09:38:23.934Z,6.30
2023-01-30T09:41:11.985Z,6.40
2023-01-30T09:44:04.102Z,6.40
2023-01-30T09:46:57.002Z,6.40
2023-01-30T09:49:36.207Z,6.50
2023-01-30T09:52:05.868Z,6.60
2023-01-30T09:54:37.897Z,6.60
2023-01-30T09:57:21.368Z,6.70
2023-01-30T10:00:05.834Z,6.60
2023-01-30T10:02:49.687Z,6.70
2023-01-30T10:05:16.667Z,6.70
2023-01-30T10:08:08.747Z,6.80
2023-01-30T10:11:10.357Z,6.80
2023-01-30T10:13:55.096Z,6.80
2023-01-30T10:16:27.558Z,6.80
2023-01-30T10:19:06.435Z,6.70
2023-01-30T10:21:58.251Z,6.70
2023-01-30T10:25:05.025Z,6.70
2023-01-30T10:27:34.391Z,6.60
2023-01-30T10:30:04.852Z,6.60
2023-01-30T10:33:02.208Z,6.60
2023-01-30T10:35:36.303Z,6.80
2023-01-30T10:38:28.811Z,6.90
2023-01-30T10:41:08.191Z,6.90
2023-01-30T10:43:43.788Z,7.00
2023-01-30T10:46:10.611Z,7.10
2023-01-30T10:48:55.325Z,7.20
2023-01-30T10:51:46.516Z,7.20
2023-01-30T10:54:19.831Z,7.20
2023-01-30T10:56:49.637Z,7.30
2023-01-30T10:59:22.135Z,7.30
2023-01-30T11:02:09.176Z,7.40
2023-01-30T11:05:05.170Z,7.40
2023-01-30T11:07:33.317Z,7.40
2023-01-30T11:10:00.903Z,7.40
2023-01-30T11:12:27.941Z,7.30
2023-01-30T11:14:58.713Z,7.20
2023-01-30T11:17:36.091Z,7.00
2023-01-30T11:20:18.338Z,6.80
2023-01-30T11:23:04.729Z,6.50
2023-01-30T11:25:31.834Z,6.30
2023-01-30T11:28:05.320Z,6.20
2023-01-30T11:30:36.858Z,6.00
2023-01-30T11:33:18.063Z,5.90
2023-01-30T11:35:58.744Z,5.90
2023-01-30T11:38:29.065Z,5.90
2023-01-30T11:41:11.021Z,5.90
2023-01-30T11:43:40.008Z,6.00
2023-01-30T11:46:10.592Z,6.10
2023-01-30T11:49:09.273Z,6.20
2023-01-30T11:51:45.155Z,6.30
2023-01-30T11:54:18.441Z,6.50
2023-01-30T11:56:57.093Z,6.60
2023-01-30T11:59:48.429Z,6.70
2023-01-30T12:02:37.930Z,6.70
2023-01-30T12:05:16.598Z,6.70
2023-01-30T12:07:46.546Z,6.70
2023-01-30T12:10:31.160Z,7.00
2023-01-30T12:13:03.646Z,6.80
2023-01-30T12:15:37.243Z,6.70
2023-01-30T12:18:35.488Z,6.70
2023-01-30T12:21:21.517Z,6.60
2023-01-30T12:24:09.588Z,6.60
2023-01-30T12:26:45.579Z,6.60
2023-01-30T12:29:24.936Z,6.80
2023-01-30T12:32:15.939Z,6.80
2023-01-30T12:34:45.585Z,6.90
2023-01-30T12:37:45.793Z,7.00
2023-01-30T12:40:54.622Z,6.90
2023-01-30T12:44:00.201Z,6.90
2023-01-30T12:46:37.906Z,7.00
2023-01-30T12:49:28.712Z,7.00
2023-01-30T12:52:16.802Z,6.90
2023-01-30T12:54:56.239Z,7.00
2023-01-30T12:57:35.536Z,7.00
2023-01-30T13:00:09.082Z,7.00
2023-01-30T13:03:13.822Z,7.10
2023-01-30T13:05:50.021Z,7.10
2023-01-30T13:08:55.334Z,7.00
2023-01-30T13:11:29.186Z,7.10
2023-01-30T13:14:08.246Z,7.10
2023-01-30T13:17:03.032Z,7.30
2023-01-30T13:19:44.967Z,7.30
2023-01-30T13:22:21.124Z,7.30
2023-01-30T13:25:11.123Z,7.30
2023-01-30T13:27:40.475Z,7.40
2023-01-30T13:30:10.525Z,7.40
2023-01-30T13:32:49.531Z,7.40
2023-01-30T13:35:20.353Z,7.40
2023-01-30T13:37:51.155Z,7.30
2023-01-30T13:40:28.298Z,7.30
2023-01-30T13:42:58.079Z,7.30
2023-01-30T13:45:29.777Z,7.30
2023-01-30T13:48:20.458Z,7.30
2023-01-30T13:51:07.542Z,7.40
2023-01-30T13:53:52.909Z,7.40
2023-01-30T13:56:53.404Z,7.40
2023-01-30T13:59:58.351Z,7.40
2023-01-30T14:02:27.059Z,7.40
2023-01-30T14:04:56.203Z,7.30
2023-01-30T14:07:33.770Z,7.30
2023-01-30T14:10:09.825Z,7.30
2023-01-30T14:12:52.519Z,7.30
2023-01-30T14:15:29.237Z,7.20
2023-01-30T14:18:00.871Z,7.20
2023-01-30T14:20:30.136Z,7.20
2023-01-30T14:22:59.263Z,7.20
2023-01-30T14:25:26.085Z,7.20
2023-01-30T14:28:01.922Z,7.20
2023-01-30T14:30:34.136Z,7.20
2023-01-30T14:33:03.415Z,7.30
2023-01-30T14:35:31.593Z,7.40
2023-01-30T14:38:14.031Z,7.30
2023-01-30T14:40:43.275Z,7.30
2023-01-30T14:43:13.295Z,7.40
2023-01-30T14:45:56.162Z,7.30
2023-01-30T14:48:48.507Z,7.30
2023-01-30T14:51:26.726Z,7.30
2023-01-30T14:53:56.361Z,7.20
2023-01-30T14:56:50.069Z,7.20
2023-01-30T14:59:16.907Z,7.20
2023-01-30T15:02:01.535Z,7.20
2023-01-30T15:05:29.912Z,7.20
2023-01-30T15:08:10.256Z,7.20
2023-01-30T15:10:46.271Z,7.20
2023-01-30T15:13:22.290Z,7.30
2023-01-30T15:16:08.697Z,7.30
2023-01-30T15:18:41.454Z,7.30
2023-01-30T15:21:31.684Z,7.20
2023-01-30T15:24:16.561Z,7.20
2023-01-30T15:27:08.154Z,7.20
2023-01-30T15:29:44.317Z,7.20
2023-01-30T15:32:25.983Z,7.20
2023-01-30T15:34:57.118Z,7.10
2023-01-30T15:37:33.101Z,7.20
2023-01-30T15:40:27.097Z,7.10
2023-01-30T15:43:34.177Z,7.10
2023-01-30T15:46:04.126Z,7.10
2023-01-30T15:49:14.899Z,7.00
2023-01-30T15:51:42.032Z,7.00
2023-01-30T15:54:12.105Z,7.10
2023-01-30T15:56:40.154Z,7.10
2023-01-30T15:59:08.322Z,7.10
2023-01-30T16:01:35.281Z,7.10
2023-01-30T16:04:07.961Z,6.90
2023-01-30T16:06:36.896Z,6.70
2023-01-30T16:09:19.382Z,6.50
2023-01-30T16:11:47.512Z,6.40
2023-01-30T16:14:20.770Z,6.30
2023-01-30T16:17:00.256Z,6.20
2023-01-30T16:19:29.564Z,6.20
2023-01-30T16:22:00.364Z,6.20
2023-01-30T16:24:33.030Z,6.00
2023-01-30T16:27:08.202Z,5.90
2023-01-30T16:29:51.115Z,5.90
2023-01-30T16:32:21.453Z,5.80
2023-01-30T16:34:48.401Z,5.80
2023-01-30T16:37:27.759Z,5.70
2023-01-30T16:40:13.645Z,5.70
2023-01-30T16:42:41.195Z,5.70
2023-01-30T16:45:31.373Z,5.70
2023-01-30T16:48:24.330Z,5.70
2023-01-30T16:51:00.650Z,5.70
2023-01-30T16:53:30.511Z,5.70
2023-01-30T16:56:00.641Z,5.70
2023-01-30T16:58:32.796Z,5.90
2023-01-30T17:01:02.174Z,5.70
2023-01-30T17:03:38.391Z,5.80
2023-01-30T17:06:18.539Z,5.80
2023-01-30T17:08:57.730Z,5.80
2023-01-30T17:11:36.727Z,5.70
2023-01-30T17:14:20.300Z,5.70
2023-01-30T17:16:48.081Z,5.70
2023-01-30T17:19:15.123Z,5.70
2023-01-30T17:22:03.659Z,5.70
2023-01-30T17:24:31.187Z,5.60
2023-01-30T17:27:02.923Z,5.60
2023-01-30T17:29:47.350Z,5.60
2023-01-30T17:32:16.152Z,5.70
2023-01-30T17:34:43.204Z,5.60
2023-01-30T17:37:19.897Z,5.60
2023-01-30T17:39:46.987Z,5.60
2023-01-30T17:42:15.279Z,5.50
2023-01-30T17:44:42.259Z,5.50
2023-01-30T17:47:12.773Z,5.50
2023-01-30T17:49:40.284Z,5.50
2023-01-30T17:52:07.317Z,5.50
2023-01-30T17:54:34.234Z,5.80
2023-01-30T17:57:04.247Z,5.50
2023-01-30T17:59:32.591Z,5.50
2023-01-30T18:01:59.915Z,5.50
2023-01-30T18:04:26.871Z,5.60
2023-01-30T18:06:59.473Z,5.50
2023-01-30T18:09:27.054Z,5.60
2023-01-30T18:11:54.047Z,5.50
2023-01-30T18:14:22.792Z,5.50
2023-01-30T18:16:50.004Z,5.50
2023-01-30T18:19:24.245Z,5.50
2023-01-30T18:21:51.455Z,5.40
2023-01-30T18:24:18.569Z,5.40
2023-01-30T18:26:46.738Z,5.30
2023-01-30T18:29:13.971Z,5.60
2023-01-30T18:31:41.658Z,5.40
2023-01-30T18:34:11.113Z,5.30
2023-01-30T18:36:38.131Z,5.30
2023-01-30T18:39:05.998Z,5.30
2023-01-30T18:41:33.081Z,5.20
2023-01-30T18:44:02.224Z,5.20
2023-01-30T18:46:30.358Z,5.20
2023-01-30T18:48:57.839Z,5.40
2023-01-30T18:51:30.417Z,5.20
2023-01-30T18:53:57.802Z,5.20
2023-01-30T18:56:33.100Z,5.20
2023-01-30T18:59:03.932Z,5.20
2023-01-30T19:01:39.968Z,5.20
2023-01-30T19:04:09.137Z,5.10
2023-01-30T19:06:41.489Z,5.20
2023-01-30T19:09:12.247Z,5.20
2023-01-30T19:12:10.599Z,5.20
2023-01-30T19:14:37.393Z,5.20
2023-01-30T19:17:04.225Z,5.20
2023-01-30T19:19:31.070Z,5.20
2023-01-30T19:21:58.167Z,5.10
2023-01-30T19:24:25.265Z,5.10
2023-01-30T19:26:52.399Z,5.10
2023-01-30T19:29:19.486Z,5.10
2023-01-30T19:31:48.649Z,5.00
2023-01-30T19:34:15.766Z,5.00
2023-01-30T19:36:42.752Z,5.00
2023-01-30T19:39:10.558Z,4.90
2023-01-30T19:41:38.216Z,4.90
2023-01-30T19:44:06.737Z,4.90
2023-01-30T19:46:34.159Z,4.90
2023-01-30T19:49:03.280Z,5.00
2023-01-30T19:51:33.215Z,5.10
2023-01-30T19:54:06.183Z,5.00
2023-01-30T19:56:34.027Z,5.00
2023-01-30T19:59:01.746Z,5.10
2023-01-30T20:01:32.625Z,5.10
2023-01-30T20:04:01.317Z,5.20
2023-01-30T20:06:33.255Z,5.20
2023-01-30T20:09:06.126Z,5.20
2023-01-30T20:11:40.042Z,5.10
2023-01-30T20:14:09.179Z,5.10
2023-01-30T20:16:36.875Z,5.00
2023-01-30T20:19:06.762Z,5.00
2023-01-30T20:21:34.150Z,5.10
2023-01-30T20:24:02.062Z,5.00
2023-01-30T20:26:35.971Z,5.00
2023-01-30T20:29:04.153Z,5.00
2023-01-30T20:31:32.235Z,4.80
2023-01-30T20:34:02.421Z,4.80
2023-01-30T20:36:29.379Z,4.90
2023-01-30T20:39:01.714Z,4.80
2023-01-30T20:41:28.690Z,4.80
2023-01-30T20:43:57.467Z,4.70
2023-01-30T20:46:30.424Z,4.70
2023-01-30T20:49:01.232Z,4.80
2023-01-30T20:51:31.921Z,4.70
2023-01-30T20:54:05.308Z,4.70
2023-01-30T20:56:44.608Z,4.70
2023-01-30T20:59:15.016Z,4.70
2023-01-30T21:01:42.139Z,4.70
2023-01-30T21:04:13.521Z,4.70
2023-01-30T21:06:45.788Z,4.60
2023-01-30T21:09:24.025Z,4.60
2023-01-30T21:11:53.067Z,4.60
2023-01-30T21:14:19.991Z,4.60
2023-01-30T21:16:47.678Z,4.60
2023-01-30T21:19:16.649Z,4.50
2023-01-30T21:21:50.264Z,4.70
2023-01-30T21:24:20.959Z,4.50
2023-01-30T21:26:48.640Z,4.50
2023-01-30T21:29:17.628Z,4.50
2023-01-30T21:31:45.530Z,4.50
2023-01-30T21:34:13.232Z,4.80
2023-01-30T21:36:40.993Z,4.40
2023-01-30T21:39:31.458Z,4.60
2023-01-30T21:42:16.759Z,4.40
2023-01-30T21:44:43.704Z,4.40
2023-01-30T21:47:10.541Z,4.30
2023-01-30T21:49:37.766Z,4.50
2023-01-30T21:52:04.760Z,4.40
2023-01-30T21:54:31.713Z,4.40
2023-01-30T21:56:58.502Z,4.40
2023-01-30T21:59:25.482Z,4.40
2023-01-30T22:01:52.370Z,4.30
2023-01-30T22:04:19.590Z,4.30
2023-01-30T22:06:46.501Z,4.30
2023-01-30T22:09:15.399Z,4.30
2023-01-30T22:11:42.822Z,4.30
2023-01-30T22:14:13.207Z,4.30
2023-01-30T22:16:40.633Z,4.20
2023-01-30T22:19:07.782Z,4.20
2023-01-30T22:21:38.548Z,4.30
2023-01-30T22:24:10.982Z,4.20
2023-01-30T22:26:38.174Z,4.20
2023-01-30T22:29:06.542Z,4.20
2023-01-30T22:31:40.370Z,4.20
2023-01-30T22:34:07.666Z,4.20
2023-01-30T22:36:35.247Z,4.20
2023-01-30T22:39:02.785Z,4.10
2023-01-30T22:41:32.711Z,4.10
2023-01-30T22:44:00.744Z,4.10
2023-01-30T22:46:33.272Z,4.20
2023-01-30T22:49:01.379Z,4.10
2023-01-30T22:51:30.399Z,4.20
2023-01-30T22:54:03.277Z,4.20
2023-01-30T22:56:34.347Z,4.20
2023-01-30T22:59:01.192Z,4.20
2023-01-30T23:01:33.340Z,4.10
2023-01-30T23:04:10.368Z,4.10
2023-01-30T23:06:38.064Z,4.10
2023-01-30T23:09:06.672Z,4.10
2023-01-30T23:11:38.246Z,4.00
2023-01-30T23:14:13.891Z,4.00
2023-01-30T23:16:43.435Z,3.90
2023-01-30T23:19:12.151Z,4.00
2023-01-30T23:21:43.340Z,3.90
2023-01-30T23:24:13.444Z,3.80
2023-01-30T23:26:43.121Z,3.80
2023-01-30T23:29:13.212Z,3.80
2023-01-30T23:31:41.095Z,3.80
2023-01-30T23:34:17.831Z,3.70
2023-01-30T23:36:45.769Z,3.70
2023-01-30T23:39:14.009Z,3.80
2023-01-30T23:41:42.172Z,3.70
2023-01-30T23:44:09.679Z,3.70
2023-01-30T23:46:39.265Z,3.70
2023-01-30T23:49:09.187Z,3.60
2023-01-30T23:51:38.059Z,3.70
2023-01-30T23:54:06.201Z,3.60
2023-01-30T23:56:35.660Z,3.60
2023-01-30T23:59:03.716Z,3.50
